LGAVLGIO

Guest
Details From LGAV - Athens Intl Airport Elefterios Venizel
To LGIO - IOANNINA
Flight Number -
Tags generated
Created
Modified
Stats Distance 185 nm / 342 km
Max Altitude 16,300 ft / 4,968 m
Waypoints 3
Social Downloads 1
Likes 0
Share VATSIM

Download

Looking for another format? Having issues loading an existing format? Contact us
Advertisement - Login to hide

Notes

Basic altitude profile: - Ascent Rate: 1800ft/min - Ascent Speed: 250kts - Cruise Altitude: 22000ft - Cruise Speed: 420kts - Descent Rate: 1500ft/min - Descent Speed: 250kts Options: - Use NATs: yes - Use PACOTS: yes - Use low airways: yes - Use high airways: yes

Route

LGAV VARDI LGIO

ID Type Via Altitude Latitude Longitude Leg Dist Tot Dist Heading (true) Name
O LGAV APT - 0 ft / 0 m 37.93636˚ 23.94447˚ - 0 nm - Athens Intl Airport Elefterios Venizel
VARDI FIX - 16,300 ft / 4,968 m 38.67194˚ 21.95111˚ 103 nm 103 nm 296° / 295° -
O LGIO APT - 0 ft / 0 m 39.69653˚ 20.82250˚ 80 nm 184 nm 320° / 319° IOANNINA

Altitude Profile

Advertisement - Login to hide

Weather


0- 5 10 15 20 25 30 35+ Temperature / ° C

Clouds and Precipitation
Forecast for 2017-12-14 00:00 UTC. Updated 5 minutes ago

Ground ~20,000 ft ~40,000 ft Winds

LGAV

Details ICAO LGAV (ATH)
Name Athens Intl Airport Elefterios Venizel
Region Greece
Timezone Europe/Athens (UTC+2.0)
Stats Elevation 308 ft / 94 m (AMSL)
Location 37.936357° 23.944470°
Runways 2
Magnetic Variation 4.484° E

METAR

LGAV 131850Z VRB02KT CAVOK 14/06 Q1019 NOSIG

Decode

TAF

TAF LGAV 131700Z 1318/1418 25008KT 9999 FEW025= TAF LGEL 131700Z 1318/1418 26010KT 9999 FEW025 BECMG 1319/1321 VRB05KT

Decode

Departure Runways

ID Width Length Bearing (true) Bearing (mag) Surface Threshold Offset Overrun Length
03L 148 ft / 45 m 12,474 ft / 3,802 m 36.51° 32.03° Asphalt 984 ft / 300 m 393 ft / 120 m
03R 148 ft / 45 m 13,131 ft / 4,002 m 36.52° 32.04° Asphalt 984 ft / 300 m 393 ft / 120 m
21L 148 ft / 45 m 13,131 ft / 4,002 m 216.54° 212.06° Asphalt 984 ft / 300 m 393 ft / 120 m
21R 148 ft / 45 m 12,474 ft / 3,802 m 216.53° 212.05° Asphalt 984 ft / 300 m 393 ft / 120 m

LGIO

Details ICAO LGIO (IOA)
Name IOANNINA
Region Greece
Timezone Europe/Athens (UTC+2.0)
Stats Elevation 1,558 ft / 475 m (AMSL)
Location 39.696531° 20.822500°
Runways 1
Magnetic Variation 4.237° E

METAR

LGIO 131850Z /////KT 9999 FEW020 BKN070 10/09 Q1020

Decode

TAF

Not found

Destination Runways

ID Width Length Bearing (true) Bearing (mag) Surface Threshold Offset Overrun Length
14 148 ft / 45 m 7,850 ft / 2,393 m 141.97° 137.73° Asphalt 0 ft / 0 m 0 ft / 0 m
32 148 ft / 45 m 7,850 ft / 2,393 m 321.98° 317.74° Asphalt 394 ft / 120 m 0 ft / 0 m

Popular Alternatives